createdAt,value
2018-02-05T00:02:23.735Z,-1.70
2018-02-05T00:04:52.114Z,-1.70
2018-02-05T00:07:20.489Z,-1.60
2018-02-05T00:09:48.106Z,-1.70
2018-02-05T00:12:15.724Z,-1.60
2018-02-05T00:14:44.127Z,-1.60
2018-02-05T00:17:12.497Z,-1.60
2018-02-05T00:19:40.123Z,-1.60
2018-02-05T00:22:07.737Z,-1.60
2018-02-05T00:24:36.146Z,-1.50
2018-02-05T00:27:03.814Z,-1.50
2018-02-05T00:29:31.426Z,-1.50
2018-02-05T00:31:59.061Z,-1.50
2018-02-05T00:34:26.661Z,-1.50
2018-02-05T00:36:54.420Z,-1.50
2018-02-05T00:39:22.052Z,-1.50
2018-02-05T00:41:49.651Z,-1.40
2018-02-05T00:44:17.273Z,-1.40
2018-02-05T00:46:44.882Z,-1.40
2018-02-05T00:49:12.848Z,-1.40
2018-02-05T00:51:40.449Z,-1.40
2018-02-05T00:54:08.805Z,-1.40
2018-02-05T00:56:36.415Z,-1.40
2018-02-05T00:59:04.772Z,-1.40
2018-02-05T01:01:33.134Z,-1.50
2018-02-05T01:04:00.743Z,-1.50
2018-02-05T01:06:29.144Z,-1.40
2018-02-05T01:08:56.750Z,-1.50
2018-02-05T01:11:24.338Z,-1.50
2018-02-05T01:13:52.757Z,-1.40
2018-02-05T01:16:20.380Z,-1.50
2018-02-05T01:18:48.012Z,-1.50
2018-02-05T01:21:15.655Z,-1.50
2018-02-05T01:23:43.270Z,-1.50
2018-02-05T01:26:10.890Z,-1.60
2018-02-05T01:28:38.482Z,-1.60
2018-02-05T01:31:06.111Z,-1.70
2018-02-05T01:33:33.716Z,-1.80
2018-02-05T01:36:01.311Z,-1.90
2018-02-05T01:38:29.695Z,-2.00
2018-02-05T01:40:58.085Z,-2.10
2018-02-05T01:43:26.487Z,-2.10
2018-02-05T01:45:54.865Z,-2.20
2018-02-05T01:48:23.261Z,-2.20
2018-02-05T01:50:50.859Z,-2.30
2018-02-05T01:53:18.500Z,-2.30
2018-02-05T01:55:46.111Z,-2.30
2018-02-05T01:58:13.716Z,-2.30
2018-02-05T02:00:42.105Z,-2.30
2018-02-05T02:03:09.709Z,-2.30
2018-02-05T02:05:37.369Z,-2.20
2018-02-05T02:08:04.978Z,-2.30
2018-02-05T02:10:33.369Z,-2.30
2018-02-05T02:13:01.745Z,-2.30
2018-02-05T02:15:30.158Z,-2.40
2018-02-05T02:17:57.848Z,-2.40
2018-02-05T02:20:25.465Z,-2.40
2018-02-05T02:22:53.860Z,-2.60
2018-02-05T02:25:22.227Z,-2.60
2018-02-05T02:27:50.853Z,-2.60
2018-02-05T02:30:18.487Z,-2.60
2018-02-05T02:32:46.857Z,-2.60
2018-02-05T02:35:14.556Z,-2.60
2018-02-05T02:37:42.174Z,-2.60
2018-02-05T02:40:09.786Z,-2.60
2018-02-05T02:42:38.264Z,-2.70
2018-02-05T02:45:06.632Z,-2.80
2018-02-05T02:47:35.022Z,-2.80
2018-02-05T02:50:03.414Z,-2.80
2018-02-05T02:52:31.253Z,-2.80
2018-02-05T02:54:58.870Z,-2.70
2018-02-05T02:57:26.494Z,-2.70
2018-02-05T02:59:55.617Z,-2.60
2018-02-05T03:02:23.986Z,-2.50
2018-02-05T03:04:52.358Z,-2.50
2018-02-05T03:07:20.741Z,-2.50
2018-02-05T03:09:48.376Z,-2.50
2018-02-05T03:12:15.978Z,-2.50
2018-02-05T03:14:44.489Z,-2.60
2018-02-05T03:17:12.866Z,-2.60
2018-02-05T03:19:41.259Z,-2.50
2018-02-05T03:22:08.888Z,-2.60
2018-02-05T03:24:36.487Z,-2.50
2018-02-05T03:27:04.089Z,-2.50
2018-02-05T03:29:31.700Z,-2.50
2018-02-05T03:32:00.081Z,-2.40
2018-02-05T03:34:27.718Z,-2.50
2018-02-05T03:36:55.353Z,-2.40
2018-02-05T03:39:23.135Z,-2.40
2018-02-05T03:41:50.733Z,-2.40
2018-02-05T03:44:18.367Z,-2.40
2018-02-05T03:46:45.976Z,-2.40
2018-02-05T03:49:14.367Z,-2.30
2018-02-05T03:51:42.729Z,-2.30
2018-02-05T03:54:11.101Z,-2.30
2018-02-05T03:56:38.741Z,-2.30
2018-02-05T03:59:06.451Z,-2.30
2018-02-05T04:01:34.231Z,-2.30
2018-02-05T04:04:02.601Z,-2.30
2018-02-05T04:06:30.215Z,-2.30
2018-02-05T04:08:57.845Z,-2.30
2018-02-05T04:11:26.211Z,-2.30
2018-02-05T04:13:54.151Z,-2.30
2018-02-05T04:16:21.798Z,-2.30
2018-02-05T04:18:49.404Z,-2.30
2018-02-05T04:21:17.020Z,-2.30
2018-02-05T04:23:45.391Z,-2.30
2018-02-05T04:26:13.776Z,-2.40
2018-02-05T04:28:42.174Z,-2.40
2018-02-05T04:31:09.811Z,-2.40
2018-02-05T04:33:38.340Z,-2.30
2018-02-05T04:36:06.208Z,-2.40
2018-02-05T04:38:33.813Z,-2.30
2018-02-05T04:41:01.540Z,-2.40
2018-02-05T04:43:29.178Z,-2.50
2018-02-05T04:45:57.620Z,-2.50
2018-02-05T04:48:25.258Z,-2.60
2018-02-05T04:50:52.863Z,-2.50
2018-02-05T04:53:20.517Z,-2.50
2018-02-05T04:55:48.124Z,-2.50
2018-02-05T04:58:16.493Z,-2.50
2018-02-05T05:00:44.212Z,-2.50
2018-02-05T05:03:11.822Z,-2.60
2018-02-05T05:05:39.509Z,-2.60
2018-02-05T05:08:07.865Z,-2.70
2018-02-05T05:10:35.503Z,-2.70
2018-02-05T05:13:03.114Z,-2.70
2018-02-05T05:15:31.525Z,-2.80
2018-02-05T05:17:59.920Z,-2.90
2018-02-05T05:20:27.533Z,-2.90
2018-02-05T05:22:55.176Z,-3.00
2018-02-05T05:25:22.803Z,-3.10
2018-02-05T05:27:51.275Z,-3.00
2018-02-05T05:30:19.719Z,-3.00
2018-02-05T05:32:47.361Z,-3.00
2018-02-05T05:35:15.013Z,-3.00
2018-02-05T05:37:42.799Z,-2.90
2018-02-05T05:40:10.433Z,-2.80
2018-02-05T05:42:39.013Z,-2.80
2018-02-05T05:45:07.646Z,-2.80
2018-02-05T05:47:35.283Z,-2.80
2018-02-05T05:50:02.979Z,-2.80
2018-02-05T05:52:30.741Z,-2.80
2018-02-05T05:54:58.387Z,-2.70
2018-02-05T05:57:26.795Z,-2.70
2018-02-05T05:59:54.563Z,-2.70
2018-02-05T06:02:23.136Z,-2.70
2018-02-05T06:04:50.785Z,-2.70
2018-02-05T06:07:19.259Z,-2.70
2018-02-05T06:09:47.805Z,-2.70
2018-02-05T06:12:15.520Z,-2.70
2018-02-05T06:14:44.002Z,-2.70
2018-02-05T06:17:12.413Z,-2.80
2018-02-05T06:19:40.112Z,-2.80
2018-02-05T06:22:08.306Z,-2.80
2018-02-05T06:24:36.742Z,-2.80
2018-02-05T06:27:04.631Z,-2.80
2018-02-05T06:29:32.505Z,-2.80
2018-02-05T06:32:00.373Z,-2.80
2018-02-05T06:34:28.004Z,-2.80
2018-02-05T06:36:56.417Z,-2.70
2018-02-05T06:39:24.052Z,-2.70
2018-02-05T06:41:52.478Z,-2.80
2018-02-05T06:44:20.240Z,-2.80
2018-02-05T06:46:47.971Z,-2.80
2018-02-05T06:49:16.432Z,-2.80
2018-02-05T06:51:56.126Z,-2.90
2018-02-05T06:54:35.357Z,-2.90
2018-02-05T06:57:03.032Z,-2.90
2018-02-05T06:59:30.653Z,-2.90
2018-02-05T07:01:59.088Z,-2.90
2018-02-05T07:04:26.795Z,-2.90
2018-02-05T07:06:54.537Z,-2.90
2018-02-05T07:09:22.230Z,-2.90
2018-02-05T07:11:49.853Z,-2.90
2018-02-05T07:14:17.493Z,-2.90
2018-02-05T07:16:45.897Z,-2.90
2018-02-05T07:19:13.549Z,-3.00
2018-02-05T07:21:41.929Z,-3.00
2018-02-05T07:24:09.563Z,-3.00
2018-02-05T07:26:37.960Z,-3.00
2018-02-05T07:29:05.586Z,-3.00
2018-02-05T07:31:33.251Z,-2.90
2018-02-05T07:34:00.861Z,-2.90
2018-02-05T07:36:29.247Z,-2.80
2018-02-05T07:38:57.652Z,-2.80
2018-02-05T07:41:26.011Z,-2.90
2018-02-05T07:43:54.569Z,-2.90
2018-02-05T07:46:22.172Z,-2.90
2018-02-05T07:48:50.551Z,-2.80
2018-02-05T07:51:18.947Z,-2.90
2018-02-05T07:53:47.327Z,-2.80
2018-02-05T07:56:16.061Z,-2.80
2018-02-05T07:58:43.682Z,-2.80
2018-02-05T08:01:12.725Z,-2.70
2018-02-05T08:03:40.517Z,-2.70
2018-02-05T08:06:08.119Z,-2.70
2018-02-05T08:08:35.774Z,-2.70
2018-02-05T08:11:04.157Z,-2.50
2018-02-05T08:13:32.951Z,-2.50
2018-02-05T08:16:00.567Z,-2.50
2018-02-05T08:18:28.188Z,-2.50
2018-02-05T08:20:56.580Z,-2.30
2018-02-05T08:23:24.954Z,-2.20
2018-02-05T08:25:53.514Z,-2.00
2018-02-05T08:28:21.143Z,-2.00
2018-02-05T08:30:48.791Z,-1.90
2018-02-05T08:33:17.190Z,-1.70
2018-02-05T08:35:44.804Z,-1.80
2018-02-05T08:38:14.031Z,-1.70
2018-02-05T08:40:42.532Z,-1.70
2018-02-05T08:43:10.190Z,-1.70
2018-02-05T08:45:38.570Z,-1.70
2018-02-05T08:48:07.396Z,-1.70
2018-02-05T08:50:35.044Z,-1.70
2018-02-05T08:53:03.674Z,-1.70
2018-02-05T08:55:31.346Z,-1.60
2018-02-05T08:57:58.990Z,-1.50
2018-02-05T09:00:26.664Z,-1.40
2018-02-05T09:02:54.287Z,-1.20
2018-02-05T09:05:22.772Z,-1.20
2018-02-05T09:07:51.172Z,-1.20
2018-02-05T09:10:18.844Z,-1.20
2018-02-05T09:12:46.488Z,-1.10
2018-02-05T09:15:14.876Z,-1.10
2018-02-05T09:17:43.347Z,-1.10
2018-02-05T09:20:11.714Z,-1.10
2018-02-05T09:22:40.106Z,-1.20
2018-02-05T09:25:08.709Z,-1.40
2018-02-05T09:27:37.083Z,-1.40
2018-02-05T09:30:05.491Z,-1.50
2018-02-05T09:32:33.084Z,-1.50
2018-02-05T09:35:00.701Z,-1.40
2018-02-05T09:37:29.097Z,-1.60
2018-02-05T09:39:57.545Z,-1.60
2018-02-05T09:42:25.183Z,-1.60
2018-02-05T09:44:52.784Z,-1.60
2018-02-05T09:47:21.925Z,-1.70
2018-02-05T09:49:49.534Z,-1.70
2018-02-05T09:52:17.143Z,-1.80
2018-02-05T09:54:45.566Z,-1.80
2018-02-05T09:57:13.182Z,-1.80
2018-02-05T09:59:41.555Z,-1.90
2018-02-05T10:02:09.935Z,-2.00
2018-02-05T10:04:37.573Z,-2.00
2018-02-05T10:07:05.185Z,-2.00
2018-02-05T10:09:33.543Z,-1.90
2018-02-05T10:12:01.175Z,-2.00
2018-02-05T10:14:28.999Z,-2.00
2018-02-05T10:16:57.413Z,-2.00
2018-02-05T10:19:25.016Z,-2.00
2018-02-05T10:21:52.662Z,-2.10
2018-02-05T10:24:20.270Z,-2.00
2018-02-05T10:26:48.647Z,-2.00
2018-02-05T10:29:16.328Z,-2.00
2018-02-05T10:31:44.714Z,-2.00
2018-02-05T10:34:13.110Z,-1.90
2018-02-05T10:36:40.748Z,-1.90
2018-02-05T10:39:09.902Z,-1.90
2018-02-05T10:41:37.594Z,-1.90
2018-02-05T10:44:05.388Z,-1.90
2018-02-05T10:46:33.774Z,-1.80
2018-02-05T10:49:02.892Z,-1.70
2018-02-05T10:51:31.320Z,-1.70
2018-02-05T10:53:58.921Z,-1.70
2018-02-05T10:56:26.535Z,-1.70
2018-02-05T10:58:54.143Z,-1.70
2018-02-05T11:01:21.770Z,-1.70
2018-02-05T11:03:49.383Z,-1.60
2018-02-05T11:06:18.531Z,-1.60
2018-02-05T11:08:46.169Z,-1.60
2018-02-05T11:11:14.557Z,-1.40
2018-02-05T11:13:42.927Z,-1.40
2018-02-05T11:16:11.298Z,-1.40
2018-02-05T11:18:38.921Z,-1.40
2018-02-05T11:21:06.531Z,-1.40
2018-02-05T11:23:35.688Z,-1.30
2018-02-05T11:26:03.303Z,-1.30
2018-02-05T11:28:31.909Z,-1.00
2018-02-05T11:31:00.276Z,-0.90
2018-02-05T11:33:28.647Z,-0.80
2018-02-05T11:35:57.920Z,-0.30
2018-02-05T11:38:25.528Z,-0.30
2018-02-05T11:40:53.944Z,0.70
2018-02-05T11:43:21.566Z,0.70
2018-02-05T11:45:49.209Z,1.00
2018-02-05T11:48:16.826Z,1.40
2018-02-05T11:50:45.294Z,1.50
2018-02-05T11:53:13.715Z,1.30
2018-02-05T11:55:41.316Z,1.30
2018-02-05T11:58:08.930Z,1.10
2018-02-05T12:00:37.288Z,1.40
2018-02-05T12:03:04.892Z,1.40
2018-02-05T12:05:32.630Z,1.60
2018-02-05T12:08:01.003Z,2.50
2018-02-05T12:10:28.632Z,2.40
2018-02-05T12:12:56.275Z,2.90
2018-02-05T12:15:23.964Z,3.30
2018-02-05T12:17:51.570Z,3.20
2018-02-05T12:20:19.940Z,3.30
2018-02-05T12:22:48.372Z,3.20
2018-02-05T12:25:16.742Z,2.80
2018-02-05T12:27:45.140Z,2.50
2018-02-05T12:30:12.790Z,2.40
2018-02-05T12:32:41.296Z,1.70
2018-02-05T12:35:09.005Z,1.70
2018-02-05T12:37:36.636Z,1.40
2018-02-05T12:40:04.274Z,1.10
2018-02-05T12:42:32.633Z,0.70
2018-02-05T12:45:00.276Z,0.70
2018-02-05T12:47:27.910Z,0.70
2018-02-05T12:49:55.510Z,1.00
2018-02-05T12:52:23.135Z,1.20
2018-02-05T12:54:50.731Z,1.30
2018-02-05T12:57:18.363Z,1.60
2018-02-05T12:59:51.699Z,1.90
2018-02-05T13:02:19.343Z,1.90
2018-02-05T13:05:03.537Z,1.80
2018-02-05T13:07:31.165Z,1.70
2018-02-05T13:09:58.769Z,1.60
2018-02-05T13:12:26.487Z,1.50
2018-02-05T13:14:54.115Z,1.20
2018-02-05T13:17:21.789Z,1.00
2018-02-05T13:19:50.194Z,1.00
2018-02-05T13:22:17.793Z,0.90
2018-02-05T13:24:45.387Z,0.80
2018-02-05T13:27:13.809Z,0.50
2018-02-05T13:29:41.577Z,0.50
2018-02-05T13:32:09.395Z,0.50
2018-02-05T13:34:37.795Z,0.60
2018-02-05T13:37:05.409Z,0.50
2018-02-05T13:39:33.030Z,0.50
2018-02-05T13:42:01.400Z,0.50
2018-02-05T13:44:29.867Z,0.40
2018-02-05T13:46:57.472Z,0.40
2018-02-05T13:49:25.889Z,0.30
2018-02-05T13:51:53.537Z,0.30
2018-02-05T13:54:21.950Z,0.30
2018-02-05T13:56:49.554Z,0.30
2018-02-05T13:59:18.774Z,0.20
2018-02-05T14:01:47.396Z,0.30
2018-02-05T14:04:15.001Z,0.20
2018-02-05T14:06:42.628Z,0.20
2018-02-05T14:09:10.241Z,0.20
2018-02-05T14:11:37.853Z,0.20
2018-02-05T14:14:05.520Z,0.20
2018-02-05T14:16:33.131Z,0.10
2018-02-05T14:19:14.228Z,0.10
2018-02-05T14:21:42.594Z,0.10
2018-02-05T14:24:10.184Z,0.10
2018-02-05T14:26:38.596Z,0.00
2018-02-05T14:29:06.186Z,0.00
2018-02-05T14:31:33.796Z,0.00
2018-02-05T14:34:02.181Z,-0.10
2018-02-05T14:36:30.642Z,-0.10
2018-02-05T14:38:58.268Z,-0.10
2018-02-05T14:41:25.869Z,-0.10
2018-02-05T14:43:53.530Z,-0.10
2018-02-05T14:46:21.158Z,-0.10
2018-02-05T14:48:48.929Z,-0.10
2018-02-05T14:51:16.540Z,-0.10
2018-02-05T14:53:44.140Z,-0.10
2018-02-05T14:56:11.767Z,-0.10
2018-02-05T14:58:39.395Z,-0.10
2018-02-05T15:01:07.027Z,-0.10
2018-02-05T15:03:34.636Z,-0.20
2018-02-05T15:06:02.309Z,-0.10
2018-02-05T15:08:29.935Z,-0.10
2018-02-05T15:10:57.563Z,-0.10
2018-02-05T15:13:25.185Z,-0.10
2018-02-05T15:15:52.969Z,-0.10
2018-02-05T15:18:20.660Z,-0.10
2018-02-05T15:20:48.421Z,-0.10
2018-02-05T15:23:16.236Z,-0.10
2018-02-05T15:25:44.659Z,-0.20
2018-02-05T15:28:12.275Z,-0.20
2018-02-05T15:30:40.663Z,-0.20
2018-02-05T15:33:09.035Z,-0.20
2018-02-05T15:35:37.430Z,-0.20
2018-02-05T15:38:05.799Z,-0.20
2018-02-05T15:40:33.479Z,-0.20
2018-02-05T15:43:01.871Z,-0.20
2018-02-05T15:45:30.303Z,-0.20
2018-02-05T15:47:57.944Z,-0.20
2018-02-05T15:50:25.696Z,-0.10
2018-02-05T15:52:54.164Z,-0.10
2018-02-05T15:55:22.538Z,-0.10
2018-02-05T15:57:50.985Z,-0.20
2018-02-05T16:00:18.594Z,-0.20
2018-02-05T16:02:46.960Z,-0.20
2018-02-05T16:05:14.644Z,-0.20
2018-02-05T16:07:43.006Z,-0.30
2018-02-05T16:10:12.308Z,-0.30
2018-02-05T16:12:40.706Z,-0.30
2018-02-05T16:15:08.375Z,-0.30
2018-02-05T16:17:36.029Z,-0.30
2018-02-05T16:20:05.245Z,-0.30
2018-02-05T16:22:33.649Z,-0.30
2018-02-05T16:25:02.018Z,-0.30
2018-02-05T16:27:30.435Z,-0.30
2018-02-05T16:29:58.084Z,-0.30
2018-02-05T16:32:26.568Z,-0.30
2018-02-05T16:34:55.094Z,-0.40
2018-02-05T16:37:23.534Z,-0.30
2018-02-05T16:39:51.925Z,-0.40
2018-02-05T16:42:20.411Z,-0.30
2018-02-05T16:44:48.799Z,-0.40
2018-02-05T16:47:16.423Z,-0.40
2018-02-05T16:49:44.118Z,-0.40
2018-02-05T16:52:12.495Z,-0.40
2018-02-05T16:54:40.197Z,-0.40
2018-02-05T16:57:07.798Z,-0.40
2018-02-05T16:59:35.404Z,-0.40
2018-02-05T17:02:03.805Z,-0.40
2018-02-05T17:04:31.426Z,-0.40
2018-02-05T17:06:59.084Z,-0.50
2018-02-05T17:09:26.766Z,-0.40
2018-02-05T17:11:55.175Z,-0.50
2018-02-05T17:14:23.702Z,-0.50
2018-02-05T17:16:51.326Z,-0.50
2018-02-05T17:19:19.703Z,-0.50
2018-02-05T17:21:48.087Z,-0.50
2018-02-05T17:24:16.534Z,-0.50
2018-02-05T17:26:44.149Z,-0.50
2018-02-05T17:29:11.800Z,-0.50
2018-02-05T17:31:40.190Z,-0.60
2018-02-05T17:34:08.564Z,-0.60
2018-02-05T17:36:36.978Z,-0.60
2018-02-05T17:39:04.570Z,-0.70
2018-02-05T17:41:32.241Z,-0.60
2018-02-05T17:43:59.870Z,-0.60
2018-02-05T17:46:27.642Z,-0.60
2018-02-05T17:48:55.362Z,-0.70
2018-02-05T17:51:22.990Z,-0.70
2018-02-05T17:53:50.766Z,-0.80
2018-02-05T17:56:18.462Z,-0.80
2018-02-05T17:58:46.104Z,-0.80
2018-02-05T18:01:13.698Z,-0.90
2018-02-05T18:03:41.490Z,-0.90
2018-02-05T18:06:09.912Z,-0.90
2018-02-05T18:08:37.540Z,-0.90
2018-02-05T18:11:05.940Z,-0.90
2018-02-05T18:13:34.359Z,-1.00
2018-02-05T18:16:02.103Z,-1.00
2018-02-05T18:18:29.781Z,-1.00
2018-02-05T18:20:57.481Z,-1.00
2018-02-05T18:23:25.092Z,-1.00
2018-02-05T18:25:53.527Z,-1.00
2018-02-05T18:28:21.333Z,-1.00
2018-02-05T18:30:49.769Z,-1.00
2018-02-05T18:33:17.481Z,-1.00
2018-02-05T18:35:46.932Z,-1.00
2018-02-05T18:38:14.912Z,-1.00
2018-02-05T18:40:42.797Z,-1.00
2018-02-05T18:43:10.544Z,-1.00
2018-02-05T18:45:38.222Z,-1.00
2018-02-05T18:48:05.883Z,-1.00
2018-02-05T18:50:33.893Z,-1.00
2018-02-05T18:53:01.539Z,-1.00
2018-02-05T18:55:29.141Z,-1.00
2018-02-05T18:57:57.644Z,-1.00
2018-02-05T19:00:37.947Z,-1.00
2018-02-05T19:03:05.633Z,-1.00
2018-02-05T19:05:34.075Z,-1.00
2018-02-05T19:08:01.994Z,-1.00
2018-02-05T19:10:30.468Z,-0.90
2018-02-05T19:12:59.088Z,-0.90
2018-02-05T19:15:27.617Z,-0.90
2018-02-05T19:17:55.351Z,-0.90
2018-02-05T19:20:23.936Z,-0.80
2018-02-05T19:22:51.567Z,-0.80
2018-02-05T19:25:20.060Z,-0.80
2018-02-05T19:27:47.827Z,-0.80
2018-02-05T19:30:16.324Z,-0.80
2018-02-05T19:32:44.724Z,-0.80
2018-02-05T19:35:13.262Z,-0.80
2018-02-05T19:37:41.003Z,-0.80
2018-02-05T19:40:08.781Z,-0.70
2018-02-05T19:42:36.562Z,-0.70
2018-02-05T19:45:04.276Z,-0.70
2018-02-05T19:47:31.981Z,-0.70
2018-02-05T19:49:59.728Z,-0.70
2018-02-05T19:52:28.197Z,-0.70
2018-02-05T19:54:56.903Z,-0.70
2018-02-05T19:57:25.358Z,-0.70
2018-02-05T19:59:53.814Z,-0.80
2018-02-05T20:02:21.567Z,-0.80
2018-02-05T20:04:49.291Z,-0.80
2018-02-05T20:07:17.817Z,-0.80
2018-02-05T20:09:46.065Z,-0.80
2018-02-05T20:12:14.598Z,-0.80
2018-02-05T20:14:42.295Z,-0.80
2018-02-05T20:17:11.559Z,-0.90
2018-02-05T20:19:39.321Z,-0.90
2018-02-05T20:22:07.099Z,-0.90
2018-02-05T20:24:34.817Z,-0.90
2018-02-05T20:27:03.309Z,-0.90
2018-02-05T20:29:32.107Z,-0.90
2018-02-05T20:32:00.573Z,-0.90
2018-02-05T20:34:29.025Z,-0.90
2018-02-05T20:36:56.722Z,-1.00
2018-02-05T20:39:25.166Z,-1.00
2018-02-05T20:41:52.863Z,-1.00
2018-02-05T20:44:20.546Z,-1.00
2018-02-05T20:46:49.026Z,-1.00
2018-02-05T20:49:17.519Z,-1.00
2018-02-05T20:51:45.950Z,-1.00
2018-02-05T20:54:13.629Z,-1.00
2018-02-05T20:56:41.313Z,-1.00
2018-02-05T20:59:09.088Z,-1.00
2018-02-05T21:01:36.743Z,-1.00
2018-02-05T21:04:04.692Z,-1.00
2018-02-05T21:06:33.007Z,-1.00
2018-02-05T21:09:00.803Z,-1.00
2018-02-05T21:11:29.257Z,-1.10
2018-02-05T21:13:57.000Z,-1.10
2018-02-05T21:16:24.607Z,-1.10
2018-02-05T21:18:52.210Z,-1.10
2018-02-05T21:21:19.844Z,-1.10
2018-02-05T21:23:47.511Z,-1.10
2018-02-05T21:26:15.164Z,-1.10
2018-02-05T21:28:42.865Z,-1.00
2018-02-05T21:31:10.526Z,-1.10
2018-02-05T21:33:38.922Z,-1.10
2018-02-05T21:36:06.584Z,-1.10
2018-02-05T21:38:35.024Z,-1.10
2018-02-05T21:41:02.691Z,-1.10
2018-02-05T21:43:30.291Z,-1.10
2018-02-05T21:45:57.934Z,-1.10
2018-02-05T21:48:25.597Z,-1.10
2018-02-05T21:50:53.245Z,-1.10
2018-02-05T21:53:20.898Z,-1.10
2018-02-05T21:55:48.511Z,-1.10
2018-02-05T21:58:17.664Z,-1.10
2018-02-05T22:00:45.309Z,-1.10
2018-02-05T22:03:13.688Z,-1.10
2018-02-05T22:05:42.205Z,-1.10
2018-02-05T22:08:09.857Z,-1.10
2018-02-05T22:10:37.660Z,-1.10
2018-02-05T22:13:05.303Z,-1.10
2018-02-05T22:15:32.883Z,-1.10
2018-02-05T22:18:00.533Z,-1.20
2018-02-05T22:20:28.159Z,-1.20
2018-02-05T22:22:56.569Z,-1.10
2018-02-05T22:25:25.069Z,-1.10
2018-02-05T22:27:52.690Z,-1.20
2018-02-05T22:30:20.321Z,-1.10
2018-02-05T22:32:47.929Z,-1.20
2018-02-05T22:35:16.335Z,-1.20
2018-02-05T22:37:44.702Z,-1.20
2018-02-05T22:40:13.187Z,-1.20
2018-02-05T22:42:41.585Z,-1.20
2018-02-05T22:45:09.960Z,-1.20
2018-02-05T22:47:38.338Z,-1.20
2018-02-05T22:50:06.730Z,-1.20
2018-02-05T22:52:35.116Z,-1.20
2018-02-05T22:55:03.489Z,-1.20
2018-02-05T22:57:31.871Z,-1.20
2018-02-05T22:59:59.585Z,-1.20
2018-02-05T23:02:27.198Z,-1.20
2018-02-05T23:04:55.696Z,-1.20
2018-02-05T23:07:24.071Z,-1.20
2018-02-05T23:09:51.694Z,-1.20
2018-02-05T23:12:19.320Z,-1.20
2018-02-05T23:14:48.067Z,-1.20
2018-02-05T23:17:16.640Z,-1.20
2018-02-05T23:19:44.334Z,-1.20
2018-02-05T23:22:11.954Z,-1.20
2018-02-05T23:24:41.204Z,-1.20
2018-02-05T23:27:10.366Z,-1.20
2018-02-05T23:29:37.976Z,-1.20
2018-02-05T23:32:06.468Z,-1.20
2018-02-05T23:34:34.088Z,-1.20
2018-02-05T23:37:01.880Z,-1.20
2018-02-05T23:39:29.549Z,-1.20
2018-02-05T23:41:57.160Z,-1.20
2018-02-05T23:44:25.113Z,-1.10
2018-02-05T23:46:53.490Z,-1.10
2018-02-05T23:49:21.913Z,-1.10
2018-02-05T23:51:49.554Z,-1.10
2018-02-05T23:54:17.930Z,-1.10
2018-02-05T23:56:46.312Z,-1.20
2018-02-05T23:59:14.695Z,-1.20
